sensor_id;sensor_type;location;lat;lon;timestamp;P1;durP1;ratioP1;P2;durP2;ratioP2
21569;SDS011;57598;50.888;4.746;2023-02-01T03:28:33;40.85;;;38.13;;
21569;SDS011;57598;50.888;4.746;2023-02-01T03:31:01;39.38;;;36.97;;
21569;SDS011;57598;50.888;4.746;2023-02-01T03:33:29;43.58;;;40.05;;
21569;SDS011;57598;50.888;4.746;2023-02-01T03:36:00;38.30;;;35.97;;
21569;SDS011;57598;50.888;4.746;2023-02-01T03:38:30;39.45;;;37.05;;
21569;SDS011;57598;50.888;4.746;2023-02-01T03:41:00;39.15;;;36.55;;
21569;SDS011;57598;50.888;4.746;2023-02-01T03:43:29;39.10;;;36.63;;
21569;SDS011;57598;50.888;4.746;2023-02-01T03:46:01;40.25;;;37.72;;
21569;SDS011;57598;50.888;4.746;2023-02-01T03:50:58;42.42;;;38.85;;
21569;SDS011;57598;50.888;4.746;2023-02-01T03:53:27;41.15;;;38.53;;
21569;SDS011;57598;50.888;4.746;2023-02-01T03:55:55;42.75;;;38.72;;
21569;SDS011;57598;50.888;4.746;2023-02-01T03:58:23;39.55;;;37.15;;
21569;SDS011;57598;50.888;4.746;2023-02-01T04:00:53;41.10;;;38.55;;
21569;SDS011;57598;50.888;4.746;2023-02-01T04:06:56;41.35;;;38.63;;
21569;SDS011;57598;50.888;4.746;2023-02-01T04:09:26;39.88;;;37.28;;
21569;SDS011;57598;50.888;4.746;2023-02-01T04:12:01;42.28;;;39.05;;
21569;SDS011;57598;50.888;4.746;2023-02-01T04:14:31;42.47;;;39.33;;
21569;SDS011;57598;50.888;4.746;2023-02-01T05:29:57;47.72;;;44.33;;
21569;SDS011;57598;50.888;4.746;2023-02-01T05:32:25;51.25;;;47.00;;
21569;SDS011;57598;50.888;4.746;2023-02-01T05:34:52;47.65;;;44.22;;
21569;SDS011;57598;50.888;4.746;2023-02-01T05:37:20;47.38;;;44.03;;
21569;SDS011;57598;50.888;4.746;2023-02-01T05:40:05;48.42;;;45.05;;
21569;SDS011;57598;50.888;4.746;2023-02-01T06:10:11;52.35;;;48.53;;
21569;SDS011;57598;50.888;4.746;2023-02-01T07:36:22;51.40;;;48.00;;
21569;SDS011;57598;50.888;4.746;2023-02-01T07:38:49;52.30;;;49.00;;
21569;SDS011;57598;50.888;4.746;2023-02-01T07:41:17;51.22;;;48.03;;
21569;SDS011;57598;50.888;4.746;2023-02-01T07:43:44;54.13;;;49.28;;
21569;SDS011;57598;50.888;4.746;2023-02-01T07:46:12;50.70;;;47.50;;
21569;SDS011;57598;50.888;4.746;2023-02-01T07:48:40;50.85;;;47.65;;
21569;SDS011;57598;50.888;4.746;2023-02-01T07:51:08;49.45;;;46.35;;
21569;SDS011;57598;50.888;4.746;2023-02-01T07:53:37;49.95;;;46.70;;
21569;SDS011;57598;50.888;4.746;2023-02-01T07:56:09;49.10;;;46.10;;
21569;SDS011;57598;50.888;4.746;2023-02-01T07:58:37;48.28;;;45.22;;
21569;SDS011;57598;50.888;4.746;2023-02-01T08:01:04;49.80;;;45.45;;
21569;SDS011;57598;50.888;4.746;2023-02-01T08:03:49;49.38;;;45.95;;
21569;SDS011;57598;50.888;4.746;2023-02-01T08:06:17;46.70;;;43.90;;
21569;SDS011;57598;50.888;4.746;2023-02-01T08:08:47;48.72;;;45.58;;
21569;SDS011;57598;50.888;4.746;2023-02-01T08:11:14;52.22;;;47.25;;
21569;SDS011;57598;50.888;4.746;2023-02-01T08:13:42;50.22;;;46.47;;
21569;SDS011;57598;50.888;4.746;2023-02-01T08:16:10;47.25;;;43.80;;
21569;SDS011;57598;50.888;4.746;2023-02-01T08:18:38;47.38;;;44.08;;
21569;SDS011;57598;50.888;4.746;2023-02-01T08:21:06;47.90;;;44.67;;
21569;SDS011;57598;50.888;4.746;2023-02-01T08:23:35;46.50;;;43.03;;
21569;SDS011;57598;50.888;4.746;2023-02-01T08:26:10;46.22;;;42.72;;
21569;SDS011;57598;50.888;4.746;2023-02-01T08:28:39;48.58;;;45.58;;
21569;SDS011;57598;50.888;4.746;2023-02-01T08:31:07;45.55;;;42.55;;
21569;SDS011;57598;50.888;4.746;2023-02-01T08:33:34;44.28;;;41.63;;
21569;SDS011;57598;50.888;4.746;2023-02-01T08:36:03;46.08;;;42.22;;
21569;SDS011;57598;50.888;4.746;2023-02-01T08:38:30;43.85;;;41.00;;
21569;SDS011;57598;50.888;4.746;2023-02-01T08:41:03;44.67;;;42.03;;
21569;SDS011;57598;50.888;4.746;2023-02-01T08:43:32;45.17;;;41.97;;
21569;SDS011;57598;50.888;4.746;2023-02-01T08:45:59;45.20;;;42.17;;
21569;SDS011;57598;50.888;4.746;2023-02-01T08:48:26;44.58;;;41.85;;
21569;SDS011;57598;50.888;4.746;2023-02-01T08:50:54;43.55;;;41.00;;
21569;SDS011;57598;50.888;4.746;2023-02-01T08:53:21;40.78;;;38.20;;
21569;SDS011;57598;50.888;4.746;2023-02-01T08:55:50;41.63;;;38.97;;
21569;SDS011;57598;50.888;4.746;2023-02-01T08:58:17;42.45;;;39.85;;
21569;SDS011;57598;50.888;4.746;2023-02-01T09:00:46;42.33;;;39.63;;
21569;SDS011;57598;50.888;4.746;2023-02-01T09:03:14;40.47;;;37.65;;
21569;SDS011;57598;50.888;4.746;2023-02-01T09:05:42;42.67;;;39.60;;
21569;SDS011;57598;50.888;4.746;2023-02-01T09:08:10;39.80;;;37.40;;
21569;SDS011;57598;50.888;4.746;2023-02-01T09:10:39;38.63;;;36.25;;
21569;SDS011;57598;50.888;4.746;2023-02-01T09:13:07;38.08;;;35.67;;
21569;SDS011;57598;50.888;4.746;2023-02-01T09:15:35;37.88;;;35.30;;
21569;SDS011;57598;50.888;4.746;2023-02-01T09:18:03;37.17;;;34.97;;
21569;SDS011;57598;50.888;4.746;2023-02-01T09:20:33;38.40;;;35.58;;
21569;SDS011;57598;50.888;4.746;2023-02-01T09:32:37;25.83;;;24.33;;
21569;SDS011;57598;50.888;4.746;2023-02-01T09:35:06;30.15;;;27.10;;
21569;SDS011;57598;50.888;4.746;2023-02-01T09:38:23;27.23;;;25.52;;
21569;SDS011;57598;50.888;4.746;2023-02-01T09:40:53;26.15;;;24.45;;
21569;SDS011;57598;50.888;4.746;2023-02-01T09:43:27;24.98;;;23.45;;
21569;SDS011;57598;50.888;4.746;2023-02-01T09:45:59;25.20;;;23.33;;
21569;SDS011;57598;50.888;4.746;2023-02-01T09:48:30;27.40;;;25.48;;
21569;SDS011;57598;50.888;4.746;2023-02-01T09:51:00;24.58;;;22.75;;
21569;SDS011;57598;50.888;4.746;2023-02-01T09:53:30;23.25;;;21.83;;
21569;SDS011;57598;50.888;4.746;2023-02-01T09:56:00;26.42;;;24.50;;
21569;SDS011;57598;50.888;4.746;2023-02-01T09:58:30;26.38;;;24.23;;
21569;SDS011;57598;50.888;4.746;2023-02-01T10:03:35;24.00;;;22.27;;
21569;SDS011;57598;50.888;4.746;2023-02-01T10:08:56;23.48;;;22.02;;
21569;SDS011;57598;50.888;4.746;2023-02-01T10:11:27;23.38;;;21.98;;
21569;SDS011;57598;50.888;4.746;2023-02-01T10:14:13;22.48;;;21.17;;
21569;SDS011;57598;50.888;4.746;2023-02-01T10:16:45;22.02;;;20.63;;
21569;SDS011;57598;50.888;4.746;2023-02-01T10:19:25;21.90;;;20.60;;
21569;SDS011;57598;50.888;4.746;2023-02-01T10:21:55;23.80;;;22.23;;
21569;SDS011;57598;50.888;4.746;2023-02-01T10:24:33;22.90;;;21.40;;
21569;SDS011;57598;50.888;4.746;2023-02-01T10:27:02;23.30;;;21.90;;
21569;SDS011;57598;50.888;4.746;2023-02-01T10:29:35;24.40;;;22.10;;
21569;SDS011;57598;50.888;4.746;2023-02-01T10:32:03;23.08;;;21.48;;
21569;SDS011;57598;50.888;4.746;2023-02-01T10:34:35;31.65;;;24.88;;
21569;SDS011;57598;50.888;4.746;2023-02-01T10:37:08;23.85;;;22.25;;
21569;SDS011;57598;50.888;4.746;2023-02-01T10:39:40;24.48;;;22.77;;
21569;SDS011;57598;50.888;4.746;2023-02-01T10:42:07;22.77;;;21.30;;
21569;SDS011;57598;50.888;4.746;2023-02-01T10:44:35;24.05;;;22.38;;
21569;SDS011;57598;50.888;4.746;2023-02-01T10:47:04;23.33;;;21.45;;
21569;SDS011;57598;50.888;4.746;2023-02-01T10:49:33;23.17;;;21.48;;
21569;SDS011;57598;50.888;4.746;2023-02-01T10:52:04;23.00;;;21.20;;
21569;SDS011;57598;50.888;4.746;2023-02-01T10:54:33;23.43;;;21.70;;
21569;SDS011;57598;50.888;4.746;2023-02-01T10:57:04;25.13;;;22.67;;
21569;SDS011;57598;50.888;4.746;2023-02-01T10:59:34;23.38;;;21.67;;
21569;SDS011;57598;50.888;4.746;2023-02-01T11:02:02;22.95;;;20.77;;
21569;SDS011;57598;50.888;4.746;2023-02-01T11:04:33;21.17;;;19.40;;
21569;SDS011;57598;50.888;4.746;2023-02-01T11:07:05;21.20;;;19.90;;
21569;SDS011;57598;50.888;4.746;2023-02-01T11:09:33;22.05;;;20.08;;
21569;SDS011;57598;50.888;4.746;2023-02-01T11:12:02;24.02;;;21.85;;
21569;SDS011;57598;50.888;4.746;2023-02-01T11:14:35;21.23;;;19.48;;
21569;SDS011;57598;50.888;4.746;2023-02-01T11:17:15;22.25;;;20.25;;
21569;SDS011;57598;50.888;4.746;2023-02-01T11:19:44;23.00;;;20.40;;
21569;SDS011;57598;50.888;4.746;2023-02-01T11:22:11;21.88;;;20.27;;
21569;SDS011;57598;50.888;4.746;2023-02-01T11:24:39;23.58;;;21.63;;
21569;SDS011;57598;50.888;4.746;2023-02-01T11:27:12;21.80;;;20.40;;
21569;SDS011;57598;50.888;4.746;2023-02-01T11:29:44;24.92;;;22.17;;
21569;SDS011;57598;50.888;4.746;2023-02-01T11:32:12;21.70;;;20.35;;
21569;SDS011;57598;50.888;4.746;2023-02-01T11:34:41;23.58;;;21.55;;
21569;SDS011;57598;50.888;4.746;2023-02-01T11:37:13;21.77;;;20.35;;
21569;SDS011;57598;50.888;4.746;2023-02-01T11:39:42;22.27;;;20.98;;
21569;SDS011;57598;50.888;4.746;2023-02-01T11:42:12;20.80;;;19.23;;
21569;SDS011;57598;50.888;4.746;2023-02-01T11:44:40;21.80;;;19.83;;
21569;SDS011;57598;50.888;4.746;2023-02-01T11:47:23;24.60;;;20.17;;
21569;SDS011;57598;50.888;4.746;2023-02-01T11:49:51;27.05;;;19.20;;
21569;SDS011;57598;50.888;4.746;2023-02-01T11:52:23;23.75;;;21.63;;
21569;SDS011;57598;50.888;4.746;2023-02-01T11:54:56;23.73;;;21.20;;
21569;SDS011;57598;50.888;4.746;2023-02-01T11:57:31;20.25;;;18.95;;
21569;SDS011;57598;50.888;4.746;2023-02-01T12:00:04;21.02;;;19.63;;
21569;SDS011;57598;50.888;4.746;2023-02-01T12:02:55;22.30;;;20.27;;
21569;SDS011;57598;50.888;4.746;2023-02-01T12:05:34;20.77;;;19.52;;
21569;SDS011;57598;50.888;4.746;2023-02-01T12:08:11;21.75;;;19.95;;
21569;SDS011;57598;50.888;4.746;2023-02-01T12:10:43;22.23;;;20.42;;
21569;SDS011;57598;50.888;4.746;2023-02-01T12:13:18;22.42;;;20.13;;
21569;SDS011;57598;50.888;4.746;2023-02-01T12:15:53;32.95;;;21.30;;
21569;SDS011;57598;50.888;4.746;2023-02-01T12:18:35;22.35;;;20.70;;
21569;SDS011;57598;50.888;4.746;2023-02-01T12:21:14;21.15;;;19.80;;
21569;SDS011;57598;50.888;4.746;2023-02-01T12:23:58;21.23;;;19.40;;
21569;SDS011;57598;50.888;4.746;2023-02-01T12:26:36;22.30;;;20.38;;
21569;SDS011;57598;50.888;4.746;2023-02-01T12:29:12;22.80;;;21.00;;
21569;SDS011;57598;50.888;4.746;2023-02-01T12:31:47;21.88;;;20.30;;
21569;SDS011;57598;50.888;4.746;2023-02-01T12:34:30;19.83;;;18.50;;
21569;SDS011;57598;50.888;4.746;2023-02-01T12:37:05;19.73;;;18.52;;
21569;SDS011;57598;50.888;4.746;2023-02-01T12:39:37;20.65;;;19.00;;
21569;SDS011;57598;50.888;4.746;2023-02-01T12:42:08;21.27;;;19.77;;
21569;SDS011;57598;50.888;4.746;2023-02-01T12:44:39;21.65;;;19.80;;
21569;SDS011;57598;50.888;4.746;2023-02-01T12:47:11;20.35;;;19.00;;
21569;SDS011;57598;50.888;4.746;2023-02-01T12:49:44;22.13;;;20.20;;
21569;SDS011;57598;50.888;4.746;2023-02-01T12:52:13;19.63;;;18.30;;
21569;SDS011;57598;50.888;4.746;2023-02-01T12:54:41;21.92;;;19.67;;
21569;SDS011;57598;50.888;4.746;2023-02-01T12:57:12;20.85;;;19.05;;
21569;SDS011;57598;50.888;4.746;2023-02-01T12:59:42;21.30;;;20.05;;
21569;SDS011;57598;50.888;4.746;2023-02-01T13:02:13;19.65;;;18.20;;
21569;SDS011;57598;50.888;4.746;2023-02-01T13:04:49;21.50;;;19.42;;
21569;SDS011;57598;50.888;4.746;2023-02-01T13:07:18;22.10;;;19.80;;
21569;SDS011;57598;50.888;4.746;2023-02-01T13:09:47;22.92;;;19.70;;
21569;SDS011;57598;50.888;4.746;2023-02-01T13:12:17;18.57;;;17.27;;
21569;SDS011;57598;50.888;4.746;2023-02-01T13:14:48;20.10;;;18.73;;
21569;SDS011;57598;50.888;4.746;2023-02-01T13:17:18;20.50;;;19.20;;
21569;SDS011;57598;50.888;4.746;2023-02-01T13:19:50;20.60;;;18.60;;
21569;SDS011;57598;50.888;4.746;2023-02-01T13:22:20;19.42;;;18.17;;
21569;SDS011;57598;50.888;4.746;2023-02-01T13:24:50;19.17;;;17.80;;
21569;SDS011;57598;50.888;4.746;2023-02-01T13:27:19;21.20;;;19.73;;
21569;SDS011;57598;50.888;4.746;2023-02-01T13:29:49;21.20;;;19.45;;
21569;SDS011;57598;50.888;4.746;2023-02-01T13:32:28;22.92;;;20.00;;
21569;SDS011;57598;50.888;4.746;2023-02-01T13:37:53;19.92;;;18.50;;
21569;SDS011;57598;50.888;4.746;2023-02-01T13:40:31;19.13;;;18.00;;
21569;SDS011;57598;50.888;4.746;2023-02-01T13:48:03;26.42;;;19.60;;
21569;SDS011;57598;50.888;4.746;2023-02-01T13:50:31;19.40;;;18.10;;
21569;SDS011;57598;50.888;4.746;2023-02-01T13:53:04;20.08;;;18.50;;
21569;SDS011;57598;50.888;4.746;2023-02-01T13:55:39;20.00;;;18.38;;
21569;SDS011;57598;50.888;4.746;2023-02-01T13:58:13;19.02;;;17.80;;
21569;SDS011;57598;50.888;4.746;2023-02-01T14:03:42;20.55;;;18.80;;
21569;SDS011;57598;50.888;4.746;2023-02-01T14:06:35;20.17;;;18.17;;
21569;SDS011;57598;50.888;4.746;2023-02-01T14:09:15;22.60;;;20.42;;
21569;SDS011;57598;50.888;4.746;2023-02-01T14:11:44;23.15;;;20.48;;
21569;SDS011;57598;50.888;4.746;2023-02-01T14:22:52;21.40;;;19.13;;
21569;SDS011;57598;50.888;4.746;2023-02-01T14:25:32;19.35;;;18.25;;
21569;SDS011;57598;50.888;4.746;2023-02-01T14:28:00;20.35;;;18.40;;
21569;SDS011;57598;50.888;4.746;2023-02-01T14:30:28;21.08;;;18.98;;
21569;SDS011;57598;50.888;4.746;2023-02-01T14:33:05;20.15;;;18.80;;
21569;SDS011;57598;50.888;4.746;2023-02-01T14:38:31;19.88;;;18.40;;
21569;SDS011;57598;50.888;4.746;2023-02-01T14:44:13;37.45;;;19.88;;
21569;SDS011;57598;50.888;4.746;2023-02-01T14:49:28;26.52;;;19.58;;
21569;SDS011;57598;50.888;4.746;2023-02-01T14:51:56;18.87;;;17.77;;
21569;SDS011;57598;50.888;4.746;2023-02-01T14:54:23;19.70;;;18.40;;
21569;SDS011;57598;50.888;4.746;2023-02-01T14:56:51;19.95;;;18.75;;
21569;SDS011;57598;50.888;4.746;2023-02-01T14:59:20;22.27;;;19.48;;
21569;SDS011;57598;50.888;4.746;2023-02-01T15:01:50;20.15;;;18.40;;
21569;SDS011;57598;50.888;4.746;2023-02-01T15:04:18;17.65;;;16.58;;
21569;SDS011;57598;50.888;4.746;2023-02-01T15:06:47;19.10;;;17.55;;
21569;SDS011;57598;50.888;4.746;2023-02-01T15:09:16;19.67;;;18.45;;
21569;SDS011;57598;50.888;4.746;2023-02-01T15:11:55;22.40;;;20.10;;
21569;SDS011;57598;50.888;4.746;2023-02-01T15:14:23;20.30;;;19.00;;
21569;SDS011;57598;50.888;4.746;2023-02-01T15:16:51;18.63;;;17.30;;
21569;SDS011;57598;50.888;4.746;2023-02-01T15:19:20;20.02;;;18.45;;
21569;SDS011;57598;50.888;4.746;2023-02-01T15:21:48;21.60;;;19.92;;
21569;SDS011;57598;50.888;4.746;2023-02-01T15:24:20;23.90;;;21.98;;
21569;SDS011;57598;50.888;4.746;2023-02-01T15:26:48;20.48;;;19.05;;
21569;SDS011;57598;50.888;4.746;2023-02-01T15:29:16;23.45;;;21.17;;
21569;SDS011;57598;50.888;4.746;2023-02-01T15:31:45;21.80;;;18.58;;
21569;SDS011;57598;50.888;4.746;2023-02-01T15:34:13;19.85;;;18.45;;
21569;SDS011;57598;50.888;4.746;2023-02-01T15:36:40;19.08;;;17.90;;
21569;SDS011;57598;50.888;4.746;2023-02-01T15:39:11;22.90;;;19.58;;
21569;SDS011;57598;50.888;4.746;2023-02-01T15:41:39;26.98;;;21.20;;
21569;SDS011;57598;50.888;4.746;2023-02-01T15:44:11;21.45;;;19.90;;
21569;SDS011;57598;50.888;4.746;2023-02-01T15:46:42;23.20;;;21.23;;
21569;SDS011;57598;50.888;4.746;2023-02-01T15:49:17;19.80;;;18.60;;
21569;SDS011;57598;50.888;4.746;2023-02-01T15:51:46;22.55;;;21.02;;
21569;SDS011;57598;50.888;4.746;2023-02-01T15:54:15;22.33;;;20.88;;
21569;SDS011;57598;50.888;4.746;2023-02-01T15:56:44;19.67;;;18.57;;
21569;SDS011;57598;50.888;4.746;2023-02-01T15:59:18;22.58;;;21.08;;
21569;SDS011;57598;50.888;4.746;2023-02-01T16:01:46;20.35;;;19.05;;
21569;SDS011;57598;50.888;4.746;2023-02-01T16:04:15;22.85;;;20.67;;
21569;SDS011;57598;50.888;4.746;2023-02-01T16:06:48;20.75;;;19.35;;
21569;SDS011;57598;50.888;4.746;2023-02-01T16:09:16;20.70;;;19.40;;
21569;SDS011;57598;50.888;4.746;2023-02-01T16:11:49;21.55;;;20.05;;
21569;SDS011;57598;50.888;4.746;2023-02-01T16:14:18;23.83;;;19.73;;
21569;SDS011;57598;50.888;4.746;2023-02-01T16:16:46;21.77;;;20.08;;
21569;SDS011;57598;50.888;4.746;2023-02-01T16:19:13;23.05;;;21.50;;
21569;SDS011;57598;50.888;4.746;2023-02-01T16:21:40;23.73;;;22.08;;
21569;SDS011;57598;50.888;4.746;2023-02-01T16:24:09;21.60;;;20.30;;
21569;SDS011;57598;50.888;4.746;2023-02-01T16:26:36;23.98;;;21.58;;
21569;SDS011;57598;50.888;4.746;2023-02-01T16:29:03;22.58;;;21.10;;
21569;SDS011;57598;50.888;4.746;2023-02-01T16:31:32;22.02;;;20.75;;
21569;SDS011;57598;50.888;4.746;2023-02-01T16:34:01;23.25;;;21.77;;
21569;SDS011;57598;50.888;4.746;2023-02-01T16:36:28;24.90;;;22.77;;
21569;SDS011;57598;50.888;4.746;2023-02-01T16:38:55;23.48;;;21.45;;
21569;SDS011;57598;50.888;4.746;2023-02-01T16:41:24;23.80;;;22.08;;
21569;SDS011;57598;50.888;4.746;2023-02-01T16:43:53;22.33;;;20.80;;
21569;SDS011;57598;50.888;4.746;2023-02-01T16:46:21;23.55;;;21.80;;
21569;SDS011;57598;50.888;4.746;2023-02-01T16:48:51;23.35;;;21.95;;
21569;SDS011;57598;50.888;4.746;2023-02-01T16:51:19;21.85;;;20.50;;
21569;SDS011;57598;50.888;4.746;2023-02-01T16:53:46;21.88;;;20.48;;
21569;SDS011;57598;50.888;4.746;2023-02-01T16:56:14;22.02;;;20.48;;
21569;SDS011;57598;50.888;4.746;2023-02-01T16:58:43;23.10;;;21.45;;
21569;SDS011;57598;50.888;4.746;2023-02-01T17:01:11;22.67;;;20.55;;
21569;SDS011;57598;50.888;4.746;2023-02-01T17:03:38;23.60;;;21.38;;
21569;SDS011;57598;50.888;4.746;2023-02-01T17:06:05;23.77;;;21.85;;
21569;SDS011;57598;50.888;4.746;2023-02-01T17:08:34;21.67;;;20.27;;
21569;SDS011;57598;50.888;4.746;2023-02-01T17:11:02;21.58;;;20.30;;
21569;SDS011;57598;50.888;4.746;2023-02-01T17:13:30;20.90;;;19.50;;
21569;SDS011;57598;50.888;4.746;2023-02-01T17:15:59;21.77;;;20.20;;
21569;SDS011;57598;50.888;4.746;2023-02-01T17:18:28;22.27;;;20.85;;
21569;SDS011;57598;50.888;4.746;2023-02-01T17:20:56;22.90;;;20.90;;
21569;SDS011;57598;50.888;4.746;2023-02-01T17:23:24;25.27;;;22.40;;
21569;SDS011;57598;50.888;4.746;2023-02-01T17:25:51;24.30;;;22.23;;
21569;SDS011;57598;50.888;4.746;2023-02-01T17:28:19;25.85;;;20.33;;
21569;SDS011;57598;50.888;4.746;2023-02-01T17:30:46;31.02;;;22.00;;
21569;SDS011;57598;50.888;4.746;2023-02-01T17:33:18;22.10;;;20.25;;
21569;SDS011;57598;50.888;4.746;2023-02-01T17:35:46;22.98;;;21.60;;
21569;SDS011;57598;50.888;4.746;2023-02-01T17:38:13;22.23;;;20.92;;
21569;SDS011;57598;50.888;4.746;2023-02-01T17:40:40;24.92;;;22.83;;
21569;SDS011;57598;50.888;4.746;2023-02-01T17:43:12;23.67;;;21.98;;
21569;SDS011;57598;50.888;4.746;2023-02-01T17:50:39;25.58;;;23.92;;
21569;SDS011;57598;50.888;4.746;2023-02-01T17:53:06;24.55;;;22.70;;
21569;SDS011;57598;50.888;4.746;2023-02-01T17:55:35;24.85;;;23.20;;
21569;SDS011;57598;50.888;4.746;2023-02-01T17:58:03;24.42;;;22.73;;
21569;SDS011;57598;50.888;4.746;2023-02-01T18:00:31;24.30;;;22.75;;
21569;SDS011;57598;50.888;4.746;2023-02-01T18:02:59;23.65;;;22.30;;
21569;SDS011;57598;50.888;4.746;2023-02-01T18:05:27;25.02;;;23.42;;
21569;SDS011;57598;50.888;4.746;2023-02-01T18:07:56;28.85;;;25.10;;
21569;SDS011;57598;50.888;4.746;2023-02-01T18:10:24;25.88;;;24.27;;
21569;SDS011;57598;50.888;4.746;2023-02-01T18:12:51;25.63;;;24.13;;
21569;SDS011;57598;50.888;4.746;2023-02-01T18:15:20;25.30;;;23.90;;
21569;SDS011;57598;50.888;4.746;2023-02-01T18:17:48;24.92;;;23.33;;
21569;SDS011;57598;50.888;4.746;2023-02-01T18:20:16;26.00;;;24.13;;
21569;SDS011;57598;50.888;4.746;2023-02-01T18:22:44;27.40;;;25.60;;
21569;SDS011;57598;50.888;4.746;2023-02-01T18:25:17;28.20;;;26.10;;
21569;SDS011;57598;50.888;4.746;2023-02-01T18:27:45;29.75;;;27.73;;
21569;SDS011;57598;50.888;4.746;2023-02-01T18:30:13;30.10;;;28.27;;
21569;SDS011;57598;50.888;4.746;2023-02-01T18:32:41;30.00;;;28.10;;
21569;SDS011;57598;50.888;4.746;2023-02-01T18:35:14;29.75;;;27.83;;
21569;SDS011;57598;50.888;4.746;2023-02-01T18:37:42;31.38;;;29.38;;
21569;SDS011;57598;50.888;4.746;2023-02-01T18:40:12;37.67;;;28.83;;
21569;SDS011;57598;50.888;4.746;2023-02-01T18:42:41;31.13;;;29.05;;
21569;SDS011;57598;50.888;4.746;2023-02-01T18:45:14;35.40;;;32.67;;
21569;SDS011;57598;50.888;4.746;2023-02-01T18:47:46;32.60;;;30.27;;
21569;SDS011;57598;50.888;4.746;2023-02-01T18:50:14;36.15;;;32.40;;
21569;SDS011;57598;50.888;4.746;2023-02-01T18:52:41;30.80;;;29.02;;
21569;SDS011;57598;50.888;4.746;2023-02-01T18:55:09;31.52;;;29.45;;
21569;SDS011;57598;50.888;4.746;2023-02-01T18:57:36;31.48;;;29.25;;
21569;SDS011;57598;50.888;4.746;2023-02-01T19:00:06;33.40;;;31.08;;
21569;SDS011;57598;50.888;4.746;2023-02-01T19:02:34;33.42;;;30.73;;
21569;SDS011;57598;50.888;4.746;2023-02-01T19:05:03;32.50;;;30.30;;
21569;SDS011;57598;50.888;4.746;2023-02-01T19:07:30;31.92;;;29.80;;
21569;SDS011;57598;50.888;4.746;2023-02-01T19:09:57;31.98;;;29.98;;
21569;SDS011;57598;50.888;4.746;2023-02-01T19:12:25;33.08;;;30.88;;
21569;SDS011;57598;50.888;4.746;2023-02-01T19:14:52;31.98;;;29.40;;
21569;SDS011;57598;50.888;4.746;2023-02-01T19:17:21;31.70;;;29.63;;
21569;SDS011;57598;50.888;4.746;2023-02-01T19:19:48;32.70;;;30.00;;
21569;SDS011;57598;50.888;4.746;2023-02-01T19:22:16;29.70;;;28.00;;
21569;SDS011;57598;50.888;4.746;2023-02-01T19:24:43;33.72;;;31.05;;
21569;SDS011;57598;50.888;4.746;2023-02-01T19:27:11;31.73;;;29.60;;
21569;SDS011;57598;50.888;4.746;2023-02-01T19:29:38;30.90;;;29.10;;
21569;SDS011;57598;50.888;4.746;2023-02-01T19:32:09;36.38;;;33.25;;
21569;SDS011;57598;50.888;4.746;2023-02-01T19:34:37;33.72;;;31.33;;
21569;SDS011;57598;50.888;4.746;2023-02-01T19:37:05;32.53;;;30.02;;
21569;SDS011;57598;50.888;4.746;2023-02-01T19:39:33;32.92;;;30.17;;
21569;SDS011;57598;50.888;4.746;2023-02-01T19:42:01;32.17;;;30.27;;
21569;SDS011;57598;50.888;4.746;2023-02-01T19:44:29;34.58;;;31.58;;
21569;SDS011;57598;50.888;4.746;2023-02-01T19:46:57;32.58;;;30.52;;
21569;SDS011;57598;50.888;4.746;2023-02-01T19:49:24;31.98;;;29.92;;
21569;SDS011;57598;50.888;4.746;2023-02-01T19:51:53;31.10;;;29.20;;
21569;SDS011;57598;50.888;4.746;2023-02-01T19:54:20;36.30;;;33.85;;
21569;SDS011;57598;50.888;4.746;2023-02-01T19:56:47;33.33;;;30.85;;
21569;SDS011;57598;50.888;4.746;2023-02-01T19:59:16;36.45;;;33.08;;
21569;SDS011;57598;50.888;4.746;2023-02-01T20:01:43;33.30;;;30.33;;
21569;SDS011;57598;50.888;4.746;2023-02-01T20:04:12;34.13;;;31.80;;
21569;SDS011;57598;50.888;4.746;2023-02-01T20:06:39;34.20;;;32.10;;
21569;SDS011;57598;50.888;4.746;2023-02-01T20:09:14;33.42;;;31.42;;
21569;SDS011;57598;50.888;4.746;2023-02-01T20:11:42;36.15;;;33.85;;
21569;SDS011;57598;50.888;4.746;2023-02-01T20:14:09;35.38;;;33.20;;
21569;SDS011;57598;50.888;4.746;2023-02-01T20:16:37;40.08;;;36.58;;
21569;SDS011;57598;50.888;4.746;2023-02-01T20:19:04;36.63;;;34.33;;
21569;SDS011;57598;50.888;4.746;2023-02-01T20:21:33;39.33;;;36.80;;
21569;SDS011;57598;50.888;4.746;2023-02-01T20:24:00;38.22;;;35.63;;
21569;SDS011;57598;50.888;4.746;2023-02-01T20:26:29;37.08;;;34.47;;
21569;SDS011;57598;50.888;4.746;2023-02-01T20:28:57;39.30;;;36.25;;
21569;SDS011;57598;50.888;4.746;2023-02-01T20:31:25;36.35;;;34.15;;
21569;SDS011;57598;50.888;4.746;2023-02-01T20:33:54;40.53;;;36.65;;
21569;SDS011;57598;50.888;4.746;2023-02-01T20:36:22;38.25;;;35.55;;
21569;SDS011;57598;50.888;4.746;2023-02-01T20:38:50;38.70;;;36.00;;
21569;SDS011;57598;50.888;4.746;2023-02-01T20:41:17;38.42;;;35.70;;
21569;SDS011;57598;50.888;4.746;2023-02-01T20:43:46;46.17;;;35.83;;
21569;SDS011;57598;50.888;4.746;2023-02-01T20:46:13;38.38;;;35.58;;
21569;SDS011;57598;50.888;4.746;2023-02-01T20:48:41;38.95;;;36.25;;
21569;SDS011;57598;50.888;4.746;2023-02-01T20:51:09;38.83;;;35.65;;
21569;SDS011;57598;50.888;4.746;2023-02-01T20:53:37;36.65;;;34.25;;
21569;SDS011;57598;50.888;4.746;2023-02-01T20:56:04;40.15;;;36.75;;
21569;SDS011;57598;50.888;4.746;2023-02-01T20:58:32;38.97;;;35.83;;
21569;SDS011;57598;50.888;4.746;2023-02-01T21:01:01;39.05;;;36.10;;
21569;SDS011;57598;50.888;4.746;2023-02-01T21:03:28;39.17;;;36.33;;
21569;SDS011;57598;50.888;4.746;2023-02-01T21:05:56;36.85;;;34.35;;
21569;SDS011;57598;50.888;4.746;2023-02-01T21:08:24;37.13;;;34.83;;
21569;SDS011;57598;50.888;4.746;2023-02-01T21:10:55;39.47;;;36.47;;
21569;SDS011;57598;50.888;4.746;2023-02-01T21:13:22;38.03;;;34.72;;
21569;SDS011;57598;50.888;4.746;2023-02-01T21:15:50;35.97;;;33.60;;
21569;SDS011;57598;50.888;4.746;2023-02-01T21:18:18;36.33;;;34.05;;
21569;SDS011;57598;50.888;4.746;2023-02-01T21:20:47;35.22;;;32.97;;
21569;SDS011;57598;50.888;4.746;2023-02-01T21:23:14;38.28;;;35.60;;
21569;SDS011;57598;50.888;4.746;2023-02-01T21:25:42;34.70;;;32.60;;
21569;SDS011;57598;50.888;4.746;2023-02-01T21:28:10;34.28;;;32.17;;
21569;SDS011;57598;50.888;4.746;2023-02-01T21:30:37;34.05;;;31.48;;
21569;SDS011;57598;50.888;4.746;2023-02-01T21:33:05;35.78;;;33.53;;
21569;SDS011;57598;50.888;4.746;2023-02-01T21:35:34;38.25;;;34.40;;
21569;SDS011;57598;50.888;4.746;2023-02-01T21:38:01;36.38;;;33.47;;
21569;SDS011;57598;50.888;4.746;2023-02-01T21:40:28;34.67;;;32.17;;
21569;SDS011;57598;50.888;4.746;2023-02-01T21:42:56;38.35;;;35.70;;
21569;SDS011;57598;50.888;4.746;2023-02-01T21:45:23;36.08;;;33.67;;
21569;SDS011;57598;50.888;4.746;2023-02-01T21:47:50;36.10;;;33.92;;
21569;SDS011;57598;50.888;4.746;2023-02-01T21:50:18;37.03;;;34.08;;
21569;SDS011;57598;50.888;4.746;2023-02-01T21:52:47;36.22;;;34.13;;
21569;SDS011;57598;50.888;4.746;2023-02-01T21:55:14;35.22;;;33.00;;
21569;SDS011;57598;50.888;4.746;2023-02-01T21:57:42;36.28;;;33.75;;
21569;SDS011;57598;50.888;4.746;2023-02-01T22:00:10;36.20;;;33.55;;
21569;SDS011;57598;50.888;4.746;2023-02-01T22:02:38;39.50;;;36.53;;